Time;durP1;ratioP1;P1;durP2;ratioP2;P2;SDS_P1;SDS_P2;PMS_P1;PMS_P2;Temp;Humidity;BMP_temperature;BMP_pressure;BME280_temperature;BME280_humidity;BME280_pressure;Samples;Min_cycle;Max_cycle;Signal;HPM_P1;HPM_P2
2023/03/05 00:01:21;;;;;;;;;;;9.90;56.60;;;;;;4991694;28;20365;-89
2023/03/05 00:03:47;;;;;;;;;;;9.90;56.60;;;;;;5010178;28;20357;-89
2023/03/05 00:06:13;;;;;;;;;;;9.90;56.60;;;;;;4991353;28;19913;-92
2023/03/05 00:08:38;;;;;;;;;;;9.90;56.50;;;;;;5009846;28;19976;-91
2023/03/05 00:11:05;;;;;;;;;;;9.90;56.50;;;;;;5009454;28;19929;-92
2023/03/05 00:13:31;;;;;;;;;;;9.90;56.50;;;;;;5007997;28;19918;-89
2023/03/05 00:15:58;;;;;;;;;;;9.90;56.50;;;;;;4994937;28;20359;-89
2023/03/05 00:18:24;;;;;;;;;;;10.00;56.60;;;;;;5010194;28;20325;-90
2023/03/05 00:20:49;;;;;;;;;;;10.00;56.60;;;;;;4995145;28;19950;-92
2023/03/05 00:23:15;;;;;;;;;;;10.00;56.50;;;;;;4989956;28;19992;-93
2023/03/05 00:25:45;;;;;;;;;;;10.00;56.50;;;;;;5011724;28;19913;-91
2023/03/05 00:28:11;;;;;;;;;;;10.00;56.40;;;;;;4991795;28;20541;-91
2023/03/05 00:30:36;;;;;;;;;;;10.00;56.40;;;;;;4990882;28;19921;-91
2023/03/05 00:33:02;;;;;;;;;;;10.00;56.40;;;;;;5007525;28;19932;-89
2023/03/05 00:35:29;;;;;;;;;;;10.00;56.50;;;;;;5010807;28;19918;-93
2023/03/05 00:37:54;;;;;;;;;;;10.00;56.40;;;;;;5008612;28;19917;-90
2023/03/05 00:40:20;;;;;;;;;;;9.90;56.40;;;;;;5002508;28;19924;-92
2023/03/05 00:42:46;;;;;;;;;;;9.90;56.40;;;;;;5007938;28;19917;-91
2023/03/05 00:45:12;;;;;;;;;;;9.80;56.30;;;;;;5007511;28;20051;-89
2023/03/05 00:47:37;;;;;;;;;;;9.80;56.30;;;;;;5055892;23;19932;-89
2023/03/05 00:50:04;;;;;;;;;;;9.80;56.40;;;;;;5037041;28;20279;-92
2023/03/05 00:52:30;;;;;;;;;;;9.80;56.40;;;;;;5044709;28;19921;-93
2023/03/05 00:54:55;;;;;;;;;;;9.80;56.50;;;;;;5033945;28;20458;-91
2023/03/05 00:57:21;;;;;;;;;;;9.70;56.40;;;;;;5047461;28;19960;-93
2023/03/05 00:59:53;;;;;;;;;;;9.70;56.40;;;;;;5053483;28;19969;-91
2023/03/05 01:02:24;;;;;;;;;;;9.70;56.40;;;;;;5055306;28;19952;-91
2023/03/05 01:04:50;;;;;;;;;;;9.70;56.50;;;;;;5072003;28;19908;-90
2023/03/05 01:07:16;;;;;;;;;;;9.70;56.60;;;;;;5071457;28;19994;-92
2023/03/05 01:09:43;;;;;;;;;;;9.70;56.70;;;;;;5036517;28;20008;-91
2023/03/05 01:12:09;;;;;;;;;;;9.60;56.80;;;;;;5034262;28;20023;-90
2023/03/05 01:14:35;;;;;;;;;;;9.60;56.90;;;;;;5032897;28;20009;-90
2023/03/05 01:17:03;;;;;;;;;;;9.60;57.10;;;;;;5051335;28;19924;-91
2023/03/05 01:19:29;;;;;;;;;;;9.60;57.20;;;;;;5033121;28;20345;-90
2023/03/05 01:21:56;;;;;;;;;;;9.50;57.20;;;;;;5051182;28;19932;-90
2023/03/05 01:24:21;;;;;;;;;;;9.50;57.30;;;;;;5050487;28;19919;-90
2023/03/05 01:26:48;;;;;;;;;;;9.60;57.30;;;;;;5051191;28;20352;-91
2023/03/05 01:29:13;;;;;;;;;;;9.60;57.40;;;;;;5073526;28;19913;-91
2023/03/05 01:31:39;;;;;;;;;;;9.60;57.50;;;;;;5070989;28;20483;-91
2023/03/05 01:34:05;;;;;;;;;;;9.60;57.60;;;;;;5070971;28;20588;-91
2023/03/05 01:36:31;;;;;;;;;;;9.60;57.60;;;;;;5071070;28;19923;-91
2023/03/05 01:38:56;;;;;;;;;;;9.50;57.70;;;;;;5072599;28;20367;-92
2023/03/05 01:41:22;;;;;;;;;;;9.50;57.70;;;;;;5055468;28;19940;-91
2023/03/05 01:43:48;;;;;;;;;;;9.50;57.80;;;;;;5075209;28;19912;-92
2023/03/05 01:46:15;;;;;;;;;;;9.40;57.90;;;;;;5073550;28;19967;-92
2023/03/05 01:48:43;;;;;;;;;;;9.40;57.90;;;;;;5053102;28;19916;-91
2023/03/05 01:51:08;;;;;;;;;;;9.30;58.00;;;;;;5072364;28;19920;-93
2023/03/05 01:53:35;;;;;;;;;;;9.30;58.20;;;;;;5053043;28;19912;-91
2023/03/05 01:56:01;;;;;;;;;;;9.30;58.20;;;;;;5052435;28;19913;-90
2023/03/05 01:58:26;;;;;;;;;;;9.30;58.30;;;;;;5071011;28;20410;-91
2023/03/05 02:00:53;;;;;;;;;;;9.30;58.40;;;;;;5055348;28;20446;-90
2023/03/05 02:03:19;;;;;;;;;;;9.30;58.50;;;;;;5054261;28;19948;-91
2023/03/05 02:05:45;;;;;;;;;;;9.30;58.60;;;;;;5054700;28;19943;-93
2023/03/05 02:08:15;;;;;;;;;;;9.20;58.60;;;;;;5071022;28;20520;-91
2023/03/05 02:10:45;;;;;;;;;;;9.20;58.70;;;;;;5070614;28;20015;-90
2023/03/05 02:13:13;;;;;;;;;;;9.30;58.70;;;;;;5052275;28;19924;-90
2023/03/05 02:15:40;;;;;;;;;;;9.30;58.80;;;;;;5061366;28;19912;-93
2023/03/05 02:18:06;;;;;;;;;;;9.30;58.80;;;;;;5071376;28;19920;-92
2023/03/05 02:20:43;;;;;;;;;;;9.20;58.90;;;;;;5055493;28;19958;-91
2023/03/05 02:23:09;;;;;;;;;;;9.30;59.00;;;;;;5053803;28;20017;-92
2023/03/05 02:25:37;;;;;;;;;;;9.20;59.10;;;;;;5072611;28;19915;-91
2023/03/05 02:28:21;;;;;;;;;;;9.30;59.10;;;;;;5032765;28;19917;-91
2023/03/05 02:30:47;;;;;;;;;;;9.30;59.10;;;;;;5031911;28;20379;-91
2023/03/05 02:33:14;;;;;;;;;;;9.30;59.20;;;;;;5032135;28;20002;-92
2023/03/05 02:35:42;;;;;;;;;;;9.30;59.30;;;;;;5052344;28;19908;-91
2023/03/05 02:38:10;;;;;;;;;;;9.30;59.20;;;;;;5035835;28;19923;-92
2023/03/05 02:40:40;;;;;;;;;;;9.30;59.20;;;;;;5073010;28;19958;-92
2023/03/05 02:43:06;;;;;;;;;;;9.30;59.20;;;;;;5058225;28;20300;-92
2023/03/05 02:45:42;;;;;;;;;;;9.30;59.30;;;;;;5055813;28;19908;-92
2023/03/05 02:48:11;;;;;;;;;;;9.30;59.20;;;;;;5073120;28;20299;-91
2023/03/05 02:50:38;;;;;;;;;;;9.30;59.30;;;;;;5057275;28;19917;-92
2023/03/05 02:53:04;;;;;;;;;;;9.30;59.30;;;;;;5060527;28;19966;-91
2023/03/05 02:55:30;;;;;;;;;;;9.30;59.30;;;;;;5057590;28;19913;-93
2023/03/05 02:57:56;;;;;;;;;;;9.40;59.20;;;;;;5056359;28;20543;-90
2023/03/05 03:00:25;;;;;;;;;;;9.40;59.30;;;;;;5074622;28;19908;-92
2023/03/05 03:02:58;;;;;;;;;;;9.40;59.40;;;;;;5056937;28;19952;-91
2023/03/05 03:05:25;;;;;;;;;;;9.40;59.40;;;;;;5073349;28;20036;-92
2023/03/05 03:07:56;;;;;;;;;;;9.40;59.30;;;;;;5055644;28;19916;-90
2023/03/05 03:10:22;;;;;;;;;;;9.40;59.30;;;;;;5057364;28;20373;-90
2023/03/05 03:12:48;;;;;;;;;;;9.40;59.30;;;;;;5058484;28;19916;-91
2023/03/05 03:15:15;;;;;;;;;;;9.40;59.30;;;;;;5056886;28;19913;-92
2023/03/05 03:17:41;;;;;;;;;;;9.40;59.40;;;;;;5058440;28;20517;-91
2023/03/05 03:20:08;;;;;;;;;;;9.40;59.40;;;;;;5055927;28;20099;-92
2023/03/05 03:22:33;;;;;;;;;;;9.40;59.30;;;;;;5076211;28;19916;-92
2023/03/05 03:24:59;;;;;;;;;;;9.40;59.20;;;;;;5055068;28;19934;-92
2023/03/05 03:27:26;;;;;;;;;;;9.40;59.20;;;;;;5054592;28;19948;-91
2023/03/05 03:29:51;;;;;;;;;;;9.30;59.30;;;;;;5075768;28;19916;-89
2023/03/05 03:32:18;;;;;;;;;;;9.40;59.40;;;;;;5058202;28;20295;-91
2023/03/05 03:34:43;;;;;;;;;;;9.40;59.50;;;;;;5056452;28;20011;-90
2023/03/05 03:37:10;;;;;;;;;;;9.40;59.60;;;;;;5072382;28;19944;-91
2023/03/05 03:39:36;;;;;;;;;;;9.40;59.70;;;;;;5053815;28;19917;-91
2023/03/05 03:42:03;;;;;;;;;;;9.30;59.80;;;;;;5055324;28;19965;-93
2023/03/05 03:44:29;;;;;;;;;;;9.20;60.00;;;;;;5056012;28;19928;-90
2023/03/05 03:46:55;;;;;;;;;;;9.20;60.10;;;;;;5073507;28;19939;-91
2023/03/05 03:49:22;;;;;;;;;;;9.20;60.20;;;;;;5054999;28;19920;-91
2023/03/05 03:51:50;;;;;;;;;;;9.20;60.30;;;;;;5055329;28;19975;-92
2023/03/05 03:54:17;;;;;;;;;;;9.20;60.30;;;;;;5053716;28;20380;-92
2023/03/05 03:56:43;;;;;;;;;;;9.20;60.30;;;;;;5072567;28;19916;-92
2023/03/05 03:59:09;;;;;;;;;;;9.20;60.50;;;;;;5053481;28;20405;-91
2023/03/05 04:01:35;;;;;;;;;;;9.20;60.60;;;;;;5071980;28;19966;-91
2023/03/05 04:04:02;;;;;;;;;;;9.20;60.80;;;;;;5071534;28;19920;-91
2023/03/05 04:06:27;;;;;;;;;;;9.20;60.80;;;;;;5053693;28;20286;-91
2023/03/05 04:08:53;;;;;;;;;;;9.30;60.80;;;;;;5073927;28;19912;-92
2023/03/05 04:11:19;;;;;;;;;;;9.30;60.90;;;;;;5071069;28;19924;-90
2023/03/05 04:13:45;;;;;;;;;;;9.30;60.90;;;;;;5054339;28;19962;-91
2023/03/05 04:16:11;;;;;;;;;;;9.30;60.90;;;;;;5073135;28;19915;-90
2023/03/05 04:18:36;;;;;;;;;;;9.30;60.90;;;;;;5055091;28;19932;-91
2023/03/05 04:21:02;;;;;;;;;;;9.30;60.80;;;;;;5071717;28;19915;-91
2023/03/05 04:23:28;;;;;;;;;;;9.30;60.80;;;;;;5054042;28;20461;-92
2023/03/05 04:25:54;;;;;;;;;;;9.30;60.80;;;;;;5075246;28;19976;-91
2023/03/05 04:28:19;;;;;;;;;;;9.30;60.70;;;;;;5055598;28;20282;-91
2023/03/05 04:30:47;;;;;;;;;;;9.30;60.70;;;;;;5060181;28;19917;-92
2023/03/05 04:33:13;;;;;;;;;;;9.30;60.60;;;;;;5052520;28;19916;-92
2023/03/05 04:35:39;;;;;;;;;;;9.20;60.40;;;;;;5051796;28;20440;-91
2023/03/05 04:38:04;;;;;;;;;;;9.20;60.30;;;;;;5050373;28;20140;-91
2023/03/05 04:40:30;;;;;;;;;;;9.20;60.20;;;;;;5053061;28;19956;-91
2023/03/05 04:42:55;;;;;;;;;;;9.20;60.20;;;;;;5050438;28;19924;-92
2023/03/05 04:45:21;;;;;;;;;;;9.20;60.30;;;;;;5061230;28;19948;-92
2023/03/05 04:47:47;;;;;;;;;;;9.20;60.30;;;;;;5072951;28;19932;-90
2023/03/05 04:50:12;;;;;;;;;;;9.10;60.40;;;;;;5072959;28;20373;-92
2023/03/05 04:52:39;;;;;;;;;;;9.10;60.40;;;;;;5073244;28;20353;-91
2023/03/05 04:55:05;;;;;;;;;;;9.10;60.40;;;;;;5072921;28;19909;-92
2023/03/05 04:57:31;;;;;;;;;;;9.10;60.50;;;;;;5074404;28;19917;-90
2023/03/05 04:59:57;;;;;;;;;;;9.10;60.50;;;;;;5071616;28;19951;-91
2023/03/05 05:02:26;;;;;;;;;;;9.20;60.50;;;;;;5071103;28;19923;-91
2023/03/05 05:04:53;;;;;;;;;;;9.20;60.60;;;;;;5052870;28;19909;-91
2023/03/05 05:07:21;;;;;;;;;;;9.20;60.70;;;;;;5041530;28;19923;-91
2023/03/05 05:09:47;;;;;;;;;;;9.20;60.60;;;;;;5032845;28;19994;-91
2023/03/05 05:12:12;;;;;;;;;;;9.20;60.60;;;;;;5051105;28;19925;-90
2023/03/05 05:14:38;;;;;;;;;;;9.10;60.50;;;;;;5032810;28;20118;-91
2023/03/05 05:17:04;;;;;;;;;;;9.10;60.40;;;;;;5050792;28;19917;-91
2023/03/05 05:19:30;;;;;;;;;;;9.10;60.20;;;;;;5051834;28;19908;-92
2023/03/05 05:21:59;;;;;;;;;;;9.10;60.20;;;;;;5033471;28;19916;-91
2023/03/05 05:24:25;;;;;;;;;;;9.00;60.30;;;;;;5051802;28;19915;-91
2023/03/05 05:26:52;;;;;;;;;;;9.00;60.40;;;;;;5052427;28;20011;-91
2023/03/05 05:29:18;;;;;;;;;;;9.00;60.40;;;;;;5033857;28;19909;-90
2023/03/05 05:31:44;;;;;;;;;;;9.10;60.50;;;;;;5032954;28;20391;-91
2023/03/05 05:34:10;;;;;;;;;;;9.00;60.50;;;;;;5051377;28;19959;-92
2023/03/05 05:36:36;;;;;;;;;;;9.00;60.60;;;;;;5052726;28;19920;-92
2023/03/05 05:39:03;;;;;;;;;;;9.10;60.60;;;;;;5065676;28;19999;-90
2023/03/05 05:41:29;;;;;;;;;;;9.10;60.70;;;;;;5052594;28;20003;-91
2023/03/05 05:43:56;;;;;;;;;;;9.10;60.80;;;;;;5069333;28;21281;-91
2023/03/05 05:46:23;;;;;;;;;;;9.10;60.80;;;;;;5067414;28;19921;-91
2023/03/05 05:48:49;;;;;;;;;;;9.00;60.80;;;;;;5057410;28;19916;-91
2023/03/05 05:51:19;;;;;;;;;;;9.00;61.00;;;;;;5058843;28;19925;-92
2023/03/05 05:53:44;;;;;;;;;;;9.00;61.10;;;;;;5058228;28;20066;-92
2023/03/05 05:56:10;;;;;;;;;;;8.90;61.20;;;;;;5064343;28;19916;-91
2023/03/05 05:58:37;;;;;;;;;;;8.90;61.30;;;;;;5037693;28;19978;-91
2023/03/05 06:01:10;;;;;;;;;;;9.00;61.40;;;;;;5060732;28;19917;-92
2023/03/05 06:03:35;;;;;;;;;;;9.00;61.50;;;;;;5043936;28;20435;-90
2023/03/05 06:06:01;;;;;;;;;;;9.00;61.50;;;;;;5036771;28;20011;-91
2023/03/05 06:08:26;;;;;;;;;;;9.00;61.60;;;;;;5069165;28;19986;-91
2023/03/05 06:10:53;;;;;;;;;;;9.00;61.60;;;;;;5068328;28;19924;-91
2023/03/05 06:13:19;;;;;;;;;;;9.00;61.80;;;;;;5068729;28;19912;-92
2023/03/05 06:15:47;;;;;;;;;;;9.10;61.80;;;;;;5049424;28;19913;-90
2023/03/05 06:18:15;;;;;;;;;;;9.10;61.80;;;;;;5069744;28;19928;-90
2023/03/05 06:20:46;;;;;;;;;;;9.10;61.80;;;;;;5051029;28;19916;-91
2023/03/05 06:23:13;;;;;;;;;;;9.10;62.00;;;;;;5068448;28;19919;-91
2023/03/05 06:25:44;;;;;;;;;;;9.20;62.00;;;;;;5051090;28;19912;-91
2023/03/05 06:28:10;;;;;;;;;;;9.20;61.90;;;;;;5069557;28;19942;-91
2023/03/05 06:30:36;;;;;;;;;;;9.20;62.00;;;;;;5051132;28;20394;-90
2023/03/05 06:33:02;;;;;;;;;;;9.30;61.90;;;;;;5049044;28;19920;-91
2023/03/05 06:35:30;;;;;;;;;;;9.30;61.90;;;;;;5041093;28;19936;-91
2023/03/05 06:38:03;;;;;;;;;;;9.30;61.80;;;;;;5044926;28;20277;-90
2023/03/05 06:40:31;;;;;;;;;;;9.30;61.80;;;;;;5064528;28;19912;-91
2023/03/05 06:43:08;;;;;;;;;;;9.30;61.90;;;;;;5053715;28;19913;-91
2023/03/05 06:45:42;;;;;;;;;;;9.30;61.90;;;;;;5058397;28;19916;-90
2023/03/05 06:48:08;;;;;;;;;;;9.30;61.80;;;;;;5032138;28;19917;-91
2023/03/05 06:50:34;;;;;;;;;;;9.30;61.70;;;;;;5050035;28;20355;-91
2023/03/05 06:53:10;;;;;;;;;;;;;;;;;;;;;
2023/03/05 06:55:44;;;;;;;;;;;9.30;62.00;;;;;;5048448;28;19917;-91
2023/03/05 06:58:17;;;;;;;;;;;9.40;62.20;;;;;;5056664;28;19919;-91
2023/03/05 07:00:50;;;;;;;;;;;9.40;62.20;;;;;;5069945;28;19913;-91
2023/03/05 07:03:16;;;;;;;;;;;9.50;62.30;;;;;;5051533;28;20267;-91
2023/03/05 07:05:42;;;;;;;;;;;9.40;62.10;;;;;;5069270;28;19919;-91
2023/03/05 07:08:12;;;;;;;;;;;9.40;62.10;;;;;;5068915;28;20375;-89
2023/03/05 07:10:39;;;;;;;;;;;9.50;62.40;;;;;;5051017;28;19939;-92
2023/03/05 07:13:07;;;;;;;;;;;9.50;62.30;;;;;;5069307;28;19916;-92
2023/03/05 07:15:38;;;;;;;;;;;9.50;62.40;;;;;;5069142;28;19913;-92
2023/03/05 07:18:04;;;;;;;;;;;9.60;62.40;;;;;;5069332;28;20318;-91
2023/03/05 07:20:32;;;;;;;;;;;9.60;62.50;;;;;;5070272;28;19917;-90
2023/03/05 07:22:58;;;;;;;;;;;9.70;62.60;;;;;;5050709;28;19939;-91
2023/03/05 07:25:23;;;;;;;;;;;9.80;62.60;;;;;;5050628;28;19932;-91
2023/03/05 07:27:49;;;;;;;;;;;9.80;62.70;;;;;;5053996;28;20003;-93
2023/03/05 07:33:05;;;;;;;;;;;9.90;62.60;;;;;;5064425;28;19924;-91
2023/03/05 07:35:35;;;;;;;;;;;10.00;62.50;;;;;;5058007;28;20354;-91
2023/03/05 07:38:01;;;;;;;;;;;10.00;62.40;;;;;;5034563;28;20394;-91
2023/03/05 07:40:29;;;;;;;;;;;10.00;62.40;;;;;;5035239;28;19956;-92
2023/03/05 07:42:55;;;;;;;;;;;10.10;62.50;;;;;;5035029;28;19917;-91
2023/03/05 07:45:23;;;;;;;;;;;10.10;62.60;;;;;;5044651;28;19981;-92
2023/03/05 07:47:56;;;;;;;;;;;10.10;62.50;;;;;;5056739;28;19916;-92
2023/03/05 07:50:32;;;;;;;;;;;10.10;62.50;;;;;;5054775;28;19912;-91
2023/03/05 07:53:06;;;;;;;;;;;10.20;62.50;;;;;;5068728;28;20003;-91
2023/03/05 07:55:40;;;;;;;;;;;10.20;62.60;;;;;;5046616;28;20016;-92
2023/03/05 07:58:23;;;;;;;;;;;10.30;62.60;;;;;;5053020;28;20278;-91
2023/03/05 08:01:00;;;;;;;;;;;10.30;62.40;;;;;;5054424;28;20623;-91
2023/03/05 08:04:01;;;;;;;;;;;10.30;62.50;;;;;;5072197;28;20010;-93
2023/03/05 08:06:37;;;;;;;;;;;10.40;62.50;;;;;;5002138;28;19913;-92
2023/03/05 08:09:11;;;;;;;;;;;10.50;62.60;;;;;;5071741;28;19917;-92
2023/03/05 08:15:05;;;;;;;;;;;10.60;62.60;;;;;;5069034;28;19982;-92
2023/03/05 08:17:43;;;;;;;;;;;10.60;62.60;;;;;;5068766;28;19921;-91
2023/03/05 08:20:19;;;;;;;;;;;;;;;;;;;;;
2023/03/05 08:25:34;;;;;;;;;;;10.90;62.80;;;;;;5060681;28;20016;-91
2023/03/05 08:28:26;;;;;;;;;;;11.10;62.90;;;;;;5052399;28;19923;-91
2023/03/05 08:37:12;;;;;;;;;;;;;;;;;;;;;
2023/03/05 08:39:54;;;;;;;;;;;;;;;;;;;;;
2023/03/05 08:42:50;;;;;;;;;;;;;;;;;;;;;
2023/03/05 08:45:31;;;;;;;;;;;12.40;62.80;;;;;;5055636;28;19912;-92
2023/03/05 08:48:16;;;;;;;;;;;12.50;62.80;;;;;;5051846;28;19931;-92
2023/03/05 08:54:42;;;;;;;;;;;;;;;;;;;;;
2023/03/05 09:00:33;;;;;;;;;;;12.80;61.90;;;;;;4934039;28;19917;-92
2023/03/05 09:03:11;;;;;;;;;;;12.80;61.80;;;;;;5016881;28;19914;-91
2023/03/05 09:05:58;;;;;;;;;;;12.80;61.80;;;;;;5016043;28;20283;-92
2023/03/05 09:12:08;;;;;;;;;;;12.70;61.00;;;;;;5029016;28;19963;-91
2023/03/05 09:14:46;;;;;;;;;;;12.60;61.30;;;;;;5060788;28;19924;-92
2023/03/05 09:17:37;;;;;;;;;;;12.70;61.20;;;;;;5044064;28;20652;-93
2023/03/05 09:20:37;;;;;;;;;;;12.70;61.60;;;;;;5032715;28;19921;-93
2023/03/05 09:23:24;;;;;;;;;;;12.80;61.90;;;;;;5045250;28;19916;-91
2023/03/05 09:26:22;;;;;;;;;;;12.90;61.60;;;;;;5041209;28;19917;-92
2023/03/05 09:32:18;;;;;;;;;;;;;;;;;;;;;
2023/03/05 09:35:49;;;;;;;;;;;13.20;61.60;;;;;;4994644;28;20390;-90
2023/03/05 09:38:40;;;;;;;;;;;13.30;61.90;;;;;;5030652;28;19917;-92
2023/03/05 09:41:40;;;;;;;;;;;;;;;;;;;;;
2023/03/05 09:53:43;;;;;;;;;;;14.30;61.50;;;;;;5065967;28;19958;-92
2023/03/05 09:59:51;;;;;;;;;;;;;;;;;;;;;
2023/03/05 10:02:46;;;;;;;;;;;13.70;59.30;;;;;;5065887;28;19927;-93
2023/03/05 10:05:44;;;;;;;;;;;;;;;;;;;;;
2023/03/05 10:08:34;;;;;;;;;;;13.10;59.40;;;;;;5062749;28;19920;-92
2023/03/05 10:11:02;;;;;;;;;;;12.70;59.20;;;;;;4993561;28;20310;-90
2023/03/05 10:13:37;;;;;;;;;;;12.40;59.10;;;;;;5061536;28;19921;-93
2023/03/05 10:16:05;;;;;;;;;;;12.00;58.70;;;;;;5036398;28;20299;-91
2023/03/05 10:18:35;;;;;;;;;;;11.80;59.20;;;;;;5048734;28;19921;-93
2023/03/05 10:21:02;;;;;;;;;;;11.50;59.00;;;;;;5067315;28;19919;-92
2023/03/05 10:23:38;;;;;;;;;;;11.30;59.60;;;;;;5049233;28;20023;-90
2023/03/05 10:26:12;;;;;;;;;;;11.20;60.40;;;;;;5048902;28;19947;-92
2023/03/05 10:29:17;;;;;;;;;;;11.20;61.30;;;;;;5068073;28;20735;-92
2023/03/05 10:31:52;;;;;;;;;;;11.30;61.50;;;;;;4987723;28;19922;-91
2023/03/05 10:34:36;;;;;;;;;;;11.30;62.00;;;;;;4987907;28;19918;-91
2023/03/05 10:37:09;;;;;;;;;;;11.30;61.90;;;;;;5034564;28;19916;-92
2023/03/05 10:39:53;;;;;;;;;;;11.30;62.30;;;;;;5069183;28;19923;-92
2023/03/05 10:42:29;;;;;;;;;;;11.40;62.20;;;;;;5068581;28;19912;-92
2023/03/05 10:45:01;;;;;;;;;;;11.50;62.70;;;;;;5068008;28;20397;-91
2023/03/05 10:47:45;;;;;;;;;;;11.50;63.00;;;;;;5048758;28;19924;-93
2023/03/05 10:50:15;;;;;;;;;;;12.00;64.50;;;;;;5063164;28;20459;-90
2023/03/05 10:52:50;;;;;;;;;;;12.60;65.20;;;;;;5062849;28;19920;-92
2023/03/05 10:55:34;;;;;;;;;;;13.30;65.20;;;;;;5046497;28;20355;-91
2023/03/05 10:58:27;;;;;;;;;;;13.80;63.90;;;;;;5043140;28;19916;-92
2023/03/05 11:01:25;;;;;;;;;;;14.20;62.80;;;;;;5045994;28;20475;-92
2023/03/05 11:13:39;;;;;;;;;;;15.80;64.10;;;;;;875957;26;20229;-93
2023/03/05 11:16:32;;;;;;;;;;;16.40;61.50;;;;;;5046046;28;19928;-92
2023/03/05 11:19:22;;;;;;;;;;;16.50;59.90;;;;;;5018015;28;19913;-92
2023/03/05 11:25:39;;;;;;;;;;;;;;;;;;;;;
2023/03/05 11:35:05;;;;;;;;;;;15.60;60.10;;;;;;4901232;29;19922;-93
2023/03/05 11:41:47;;;;;;;;;;;15.30;59.60;;;;;;5013614;23;19925;-92
2023/03/05 11:47:44;;;;;;;;;;;;;;;;;;;;;
2023/03/05 11:53:02;;;;;;;;;;;15.30;60.20;;;;;;5063250;28;20026;-92
2023/03/05 12:05:30;;;;;;;;;;;16.10;59.10;;;;;;4980187;28;20052;-92
2023/03/05 12:08:26;;;;;;;;;;;;;;;;;;;;;
2023/03/05 12:14:35;;;;;;;;;;;16.30;57.40;;;;;;4998888;28;19910;-92
2023/03/05 12:20:46;;;;;;;;;;;16.80;57.20;;;;;;5022395;28;19909;-93
2023/03/05 12:23:38;;;;;;;;;;;17.10;57.20;;;;;;4972451;28;19964;-91
2023/03/05 12:28:55;;;;;;;;;;;;;;;;;;;;;
2023/03/05 12:31:56;;;;;;;;;;;;;;;;;;;;;
2023/03/05 12:34:46;;;;;;;;;;;16.70;57.90;;;;;;5035274;28;20525;-90
2023/03/05 12:40:41;;;;;;;;;;;16.40;57.80;;;;;;4990536;28;20388;-91
2023/03/05 12:43:41;;;;;;;;;;;16.50;58.20;;;;;;5024549;28;19920;-94
2023/03/05 12:46:28;;;;;;;;;;;16.70;58.10;;;;;;5010112;28;20004;-93
2023/03/05 12:52:29;;;;;;;;;;;16.60;58.00;;;;;;5018089;28;20532;-91
2023/03/05 12:55:36;;;;;;;;;;;;;;;;;;;;;
2023/03/05 12:58:31;;;;;;;;;;;16.20;57.80;;;;;;5042231;28;19916;-91
2023/03/05 13:01:47;;;;;;;;;;;;;;;;;;;;;
2023/03/05 13:04:27;;;;;;;;;;;17.00;58.60;;;;;;4989730;28;19913;-92
2023/03/05 13:07:24;;;;;;;;;;;17.30;58.00;;;;;;4966021;28;19925;-91
2023/03/05 13:13:41;;;;;;;;;;;17.40;57.70;;;;;;4972626;28;20369;-92
2023/03/05 13:16:19;;;;;;;;;;;17.40;57.10;;;;;;4940021;28;20663;-92
2023/03/05 13:19:22;;;;;;;;;;;17.30;57.80;;;;;;4971177;28;19918;-90
2023/03/05 13:22:23;;;;;;;;;;;17.30;58.20;;;;;;4943686;28;19922;-92
2023/03/05 13:25:15;;;;;;;;;;;17.30;57.00;;;;;;4950194;28;19933;-93
2023/03/05 13:27:52;;;;;;;;;;;17.20;57.50;;;;;;4952282;28;20377;-92
2023/03/05 13:31:01;;;;;;;;;;;17.20;57.90;;;;;;4988600;28;20548;-92
2023/03/05 13:33:52;;;;;;;;;;;17.10;56.60;;;;;;5020499;28;20279;-91
2023/03/05 13:36:39;;;;;;;;;;;;;;;;;;;;;
2023/03/05 13:39:23;;;;;;;;;;;17.10;57.50;;;;;;5043975;28;19916;-93
2023/03/05 13:42:22;;;;;;;;;;;17.00;58.20;;;;;;5029162;28;19917;-91
2023/03/05 13:47:58;;;;;;;;;;;16.80;57.10;;;;;;5048043;28;19916;-92
2023/03/05 13:50:26;;;;;;;;;;;16.80;57.70;;;;;;5032791;28;19924;-91
2023/03/05 13:53:30;;;;;;;;;;;16.70;55.90;;;;;;5031899;28;19951;-92
2023/03/05 13:56:13;;;;;;;;;;;16.50;53.70;;;;;;5027110;28;20364;-93
2023/03/05 13:58:55;;;;;;;;;;;16.30;55.90;;;;;;5031557;28;19978;-92
2023/03/05 14:01:24;;;;;;;;;;;16.30;56.20;;;;;;5030866;28;20038;-92
2023/03/05 14:07:17;;;;;;;;;;;16.20;56.80;;;;;;5025589;28;20376;-94
2023/03/05 14:12:49;;;;;;;;;;;16.10;57.50;;;;;;5024447;28;20368;-91
2023/03/05 14:15:47;;;;;;;;;;;16.10;57.40;;;;;;5034840;28;19952;-91
2023/03/05 14:21:15;;;;;;;;;;;16.20;58.10;;;;;;5013406;28;19983;-92
2023/03/05 14:23:53;;;;;;;;;;;16.20;57.00;;;;;;5020273;28;19948;-91
2023/03/05 14:26:42;;;;;;;;;;;16.20;56.70;;;;;;5012242;28;19975;-92
2023/03/05 14:32:14;;;;;;;;;;;16.20;57.30;;;;;;5032827;28;20525;-93
2023/03/05 14:34:48;;;;;;;;;;;16.30;58.10;;;;;;5031927;28;19983;-93
2023/03/05 14:37:20;;;;;;;;;;;16.30;58.00;;;;;;5031935;28;20411;-91
2023/03/05 14:40:04;;;;;;;;;;;16.30;57.50;;;;;;5034098;28;19912;-91
2023/03/05 14:42:51;;;;;;;;;;;16.30;56.10;;;;;;5025487;28;19920;-92
2023/03/05 14:45:33;;;;;;;;;;;16.20;55.70;;;;;;5024588;28;19966;-92
2023/03/05 14:57:18;;;;;;;;;;;15.80;54.20;;;;;;5052881;28;20015;-91
2023/03/05 15:03:05;;;;;;;;;;;15.70;54.40;;;;;;3892078;26;20340;-91
2023/03/05 15:08:36;;;;;;;;;;;15.30;53.00;;;;;;5006128;28;19913;-91
2023/03/05 15:11:38;;;;;;;;;;;15.20;54.10;;;;;;5021785;28;19940;-93
2023/03/05 15:14:40;;;;;;;;;;;;;;;;;;;;;
2023/03/05 15:17:43;;;;;;;;;;;14.90;53.00;;;;;;5032882;28;19923;-94
2023/03/05 15:23:55;;;;;;;;;;;14.70;53.80;;;;;;4973068;28;20007;-92
2023/03/05 15:26:53;;;;;;;;;;;14.70;54.00;;;;;;4963889;28;19941;-91
2023/03/05 15:37:55;;;;;;;;;;;14.50;54.00;;;;;;5102598;23;19929;-93
2023/03/05 15:47:42;;;;;;;;;;;14.20;53.40;;;;;;4973056;28;19931;-93
2023/03/05 15:50:20;;;;;;;;;;;14.10;53.10;;;;;;4958484;28;19919;-91
2023/03/05 15:53:14;;;;;;;;;;;14.00;53.50;;;;;;4940943;28;20001;-92
2023/03/05 16:05:22;;;;;;;;;;;13.80;52.90;;;;;;5042917;28;19920;-92
2023/03/05 16:08:07;;;;;;;;;;;13.70;53.40;;;;;;5047840;28;19927;-90
2023/03/05 16:10:52;;;;;;;;;;;13.70;52.90;;;;;;5031857;28;19956;-92
2023/03/05 16:13:56;;;;;;;;;;;;;;;;;;;;;
2023/03/05 16:16:34;;;;;;;;;;;13.60;52.50;;;;;;5042832;28;19924;-90
2023/03/05 16:25:11;;;;;;;;;;;13.50;53.00;;;;;;5048092;28;19912;-90
2023/03/05 16:28:00;;;;;;;;;;;13.40;52.80;;;;;;5049845;28;19960;-90
2023/03/05 16:31:06;;;;;;;;;;;13.40;53.30;;;;;;5048225;28;19921;-90
2023/03/05 16:33:34;;;;;;;;;;;13.40;53.90;;;;;;5045769;28;20708;-93
2023/03/05 16:36:15;;;;;;;;;;;13.40;53.40;;;;;;5044047;28;20449;-89
2023/03/05 16:38:47;;;;;;;;;;;13.30;53.70;;;;;;5044349;28;19917;-92
2023/03/05 16:41:25;;;;;;;;;;;13.30;53.20;;;;;;5041811;28;19919;-91
2023/03/05 16:43:55;;;;;;;;;;;13.30;53.30;;;;;;5028115;28;20375;-91
2023/03/05 16:46:35;;;;;;;;;;;13.20;53.10;;;;;;5026973;28;19921;-90
2023/03/05 16:49:10;;;;;;;;;;;13.10;53.50;;;;;;5055736;28;19921;-94
2023/03/05 16:51:40;;;;;;;;;;;13.00;53.80;;;;;;5045945;28;20005;-93
2023/03/05 16:54:09;;;;;;;;;;;13.00;53.70;;;;;;5042797;28;20440;-91
2023/03/05 16:56:34;;;;;;;;;;;12.90;53.80;;;;;;5030455;28;19917;-92
2023/03/05 16:59:00;;;;;;;;;;;12.80;53.80;;;;;;5017229;28;20317;-92
2023/03/05 17:01:29;;;;;;;;;;;12.80;53.50;;;;;;5002673;28;19917;-91
2023/03/05 17:03:56;;;;;;;;;;;12.80;53.80;;;;;;5010750;28;19916;-90
2023/03/05 17:06:24;;;;;;;;;;;12.70;53.50;;;;;;5013197;28;19913;-92
2023/03/05 17:08:53;;;;;;;;;;;12.70;53.40;;;;;;5021315;28;20297;-92
2023/03/05 17:11:29;;;;;;;;;;;12.70;53.80;;;;;;5016642;28;20268;-91
2023/03/05 17:14:02;;;;;;;;;;;12.60;53.90;;;;;;4997166;28;20329;-89
2023/03/05 17:16:33;;;;;;;;;;;12.60;53.70;;;;;;5011205;28;20430;-93
2023/03/05 17:19:01;;;;;;;;;;;12.60;53.80;;;;;;5029495;28;19917;-94
2023/03/05 17:21:29;;;;;;;;;;;12.60;53.40;;;;;;5003689;28;19971;-94
2023/03/05 17:23:55;;;;;;;;;;;12.60;53.70;;;;;;5029081;28;19917;-94
2023/03/05 17:26:34;;;;;;;;;;;12.50;53.60;;;;;;5025761;28;19998;-93
2023/03/05 17:29:09;;;;;;;;;;;12.50;53.60;;;;;;5023199;28;20000;-93
2023/03/05 17:31:38;;;;;;;;;;;12.50;53.60;;;;;;5011941;28;20597;-93
2023/03/05 17:34:09;;;;;;;;;;;12.40;53.70;;;;;;4995114;28;19917;-93
2023/03/05 17:36:44;;;;;;;;;;;12.40;53.90;;;;;;5015435;28;19913;-92
2023/03/05 17:39:35;;;;;;;;;;;12.40;53.80;;;;;;5012540;28;20005;-90
2023/03/05 17:42:14;;;;;;;;;;;12.40;53.60;;;;;;5005573;28;19928;-93
2023/03/05 17:44:42;;;;;;;;;;;12.30;53.60;;;;;;5009285;28;19968;-93
2023/03/05 17:47:12;;;;;;;;;;;12.30;53.70;;;;;;5026265;28;19967;-90
2023/03/05 17:49:45;;;;;;;;;;;12.30;53.10;;;;;;5009202;28;19964;-92
2023/03/05 17:55:16;;;;;;;;;;;12.20;53.20;;;;;;5012971;28;19917;-93
2023/03/05 17:57:42;;;;;;;;;;;12.20;53.00;;;;;;5002407;28;19917;-92
2023/03/05 18:00:16;;;;;;;;;;;12.10;53.30;;;;;;5026083;28;19996;-93
2023/03/05 18:03:04;;;;;;;;;;;12.10;53.20;;;;;;5025634;28;20249;-92
2023/03/05 18:05:32;;;;;;;;;;;12.00;53.20;;;;;;5049225;28;19924;-91
2023/03/05 18:07:59;;;;;;;;;;;12.00;52.30;;;;;;5025904;28;20086;-93
2023/03/05 18:10:30;;;;;;;;;;;12.00;52.80;;;;;;5026102;28;19921;-92
2023/03/05 18:13:02;;;;;;;;;;;11.90;52.40;;;;;;5054333;28;19956;-92